TimeCST,TemperatureF,Dew PointF,Humidity,Sea Level PressureIn,VisibilityMPH,Wind Direction,Wind SpeedMPH,Gust SpeedMPH,PrecipitationIn,Events,Conditions,WindDirDegrees,DateUTC
12:15 AM,26.6,17.6,69,30.35,10.0,Calm,Calm,-,N/A,,Clear,0,2013-01-22 06:15:00
12:35 AM,26.6,17.6,69,30.35,10.0,Calm,Calm,-,N/A,,Clear,0,2013-01-22 06:35:00
12:55 AM,26.6,17.6,69,30.35,-9999.0,Calm,Calm,-,N/A,,Clear,0,2013-01-22 06:55:00
1:15 AM,24.8,17.6,74,30.34,10.0,Calm,Calm,-,N/A,,Clear,0,2013-01-22 07:15:00
1:55 AM,24.8,17.6,74,30.33,10.0,Calm,Calm,-,N/A,,Clear,0,2013-01-22 07:55:00
2:15 AM,23.0,17.6,80,30.32,10.0,Calm,Calm,-,N/A,,Clear,0,2013-01-22 08:15:00
2:35 AM,23.0,17.6,80,30.32,10.0,Calm,Calm,-,N/A,,Clear,0,2013-01-22 08:35:00
2:55 AM,23.0,17.6,80,30.32,10.0,Calm,Calm,-,N/A,,Clear,0,2013-01-22 08:55:00
3:15 AM,23.0,17.6,80,30.32,10.0,ENE,3.5,-,N/A,,Clear,60,2013-01-22 09:15:00
3:35 AM,23.0,17.6,80,30.31,10.0,Calm,Calm,-,N/A,,Clear,0,2013-01-22 09:35:00
3:55 AM,24.8,17.6,74,30.33,10.0,NE,3.5,-,N/A,,Clear,40,2013-01-22 09:55:00
4:15 AM,23.0,17.6,80,30.32,10.0,Calm,Calm,-,N/A,,Clear,0,2013-01-22 10:15:00
4:35 AM,23.0,17.6,80,30.32,10.0,Calm,Calm,-,N/A,,Clear,0,2013-01-22 10:35:00
4:55 AM,23.0,17.6,80,30.32,10.0,Calm,Calm,-,N/A,,Clear,0,2013-01-22 10:55:00
5:15 AM,21.2,17.6,86,30.32,10.0,Calm,Calm,-,N/A,,Clear,0,2013-01-22 11:15:00
5:35 AM,23.0,19.4,86,30.32,10.0,Calm,Calm,-,N/A,,Clear,0,2013-01-22 11:35:00
5:55 AM,23.0,17.6,80,30.32,10.0,Calm,Calm,-,N/A,,Clear,0,2013-01-22 11:55:00
6:15 AM,23.0,17.6,80,30.32,10.0,Calm,Calm,-,N/A,,Clear,0,2013-01-22 12:15:00
6:35 AM,23.0,17.6,80,30.31,-9999.0,East,3.5,-,N/A,,Clear,90,2013-01-22 12:35:00
6:55 AM,23.0,17.6,80,30.32,-9999.0,Calm,Calm,-,N/A,,Clear,0,2013-01-22 12:55:00
7:15 AM,23.0,17.6,80,30.32,-9999.0,Calm,Calm,-,N/A,,Clear,0,2013-01-22 13:15:00
7:35 AM,23.0,17.6,80,30.32,-9999.0,Calm,Calm,-,N/A,,Clear,0,2013-01-22 13:35:00
7:55 AM,23.0,17.6,80,30.33,-9999.0,Calm,Calm,-,N/A,,Clear,0,2013-01-22 13:55:00
8:15 AM,24.8,19.4,80,30.33,-9999.0,Calm,Calm,-,N/A,,Clear,0,2013-01-22 14:15:00
8:35 AM,26.6,19.4,74,30.33,-9999.0,Calm,Calm,-,N/A,,Scattered Clouds,0,2013-01-22 14:35:00
8:55 AM,28.4,21.2,74,30.33,-9999.0,Calm,Calm,-,N/A,,Scattered Clouds,0,2013-01-22 14:55:00
9:15 AM,30.2,21.2,69,30.32,-9999.0,Calm,Calm,-,N/A,,Mostly Cloudy,0,2013-01-22 15:15:00
9:35 AM,32.0,21.2,64,30.31,-9999.0,ESE,4.6,-,N/A,,Scattered Clouds,110,2013-01-22 15:35:00
9:55 AM,33.8,23.0,65,30.30,-9999.0,SE,4.6,-,N/A,,Clear,130,2013-01-22 15:55:00
10:15 AM,35.6,23.0,60,30.30,-9999.0,SSE,4.6,-,N/A,,Mostly Cloudy,160,2013-01-22 16:15:00
10:35 AM,37.4,23.0,56,30.31,-9999.0,South,5.8,-,N/A,,Overcast,180,2013-01-22 16:35:00
10:55 AM,37.4,23.0,56,30.32,-9999.0,Calm,Calm,-,N/A,,Overcast,0,2013-01-22 16:55:00
11:15 AM,39.2,23.0,52,30.33,-9999.0,Calm,Calm,-,N/A,,Overcast,0,2013-01-22 17:15:00
11:35 AM,39.2,23.0,52,30.33,-9999.0,Calm,Calm,-,N/A,,Overcast,0,2013-01-22 17:35:00
11:55 AM,39.2,23.0,52,30.33,10.0,NW,3.5,-,N/A,,Overcast,320,2013-01-22 17:55:00
12:15 PM,39.2,24.8,56,30.32,-9999.0,NNW,3.5,-,N/A,,Overcast,330,2013-01-22 18:15:00
12:35 PM,41.0,24.8,53,30.31,10.0,Calm,Calm,-,N/A,,Overcast,0,2013-01-22 18:35:00
12:55 PM,41.0,23.0,49,30.29,10.0,Calm,Calm,-,N/A,,Overcast,0,2013-01-22 18:55:00
1:15 PM,41.0,24.8,53,30.28,-9999.0,Calm,Calm,-,N/A,,Overcast,0,2013-01-22 19:15:00
1:35 PM,42.8,24.8,49,30.27,10.0,Calm,Calm,-,N/A,,Overcast,0,2013-01-22 19:35:00
1:55 PM,42.8,26.6,53,30.26,10.0,Calm,Calm,-,N/A,,Overcast,0,2013-01-22 19:55:00
2:15 PM,42.8,24.8,49,30.25,10.0,Calm,Calm,-,N/A,,Overcast,0,2013-01-22 20:15:00
2:35 PM,44.6,26.6,49,30.24,10.0,Calm,Calm,-,N/A,,Overcast,0,2013-01-22 20:35:00
2:55 PM,44.6,26.6,49,30.24,10.0,North,3.5,-,N/A,,Overcast,360,2013-01-22 20:55:00
3:15 PM,44.6,26.6,49,30.24,10.0,Calm,Calm,-,N/A,,Mostly Cloudy,0,2013-01-22 21:15:00
3:35 PM,44.6,26.6,49,30.23,10.0,NNE,3.5,-,N/A,,Clear,30,2013-01-22 21:35:00
3:55 PM,44.6,26.6,49,30.23,10.0,ENE,3.5,-,N/A,,Clear,60,2013-01-22 21:55:00
4:15 PM,46.4,26.6,46,30.22,10.0,NE,3.5,-,N/A,,Clear,50,2013-01-22 22:15:00
4:35 PM,44.6,26.6,49,30.22,10.0,Calm,Calm,-,N/A,,Clear,0,2013-01-22 22:35:00
4:55 PM,44.6,28.4,53,30.22,10.0,Calm,Calm,-,N/A,,Clear,0,2013-01-22 22:55:00
5:15 PM,44.6,26.6,49,30.22,10.0,Calm,Calm,-,N/A,,Clear,0,2013-01-22 23:15:00
5:35 PM,41.0,26.6,57,30.22,-9999.0,Calm,Calm,-,N/A,,Clear,0,2013-01-22 23:35:00
5:55 PM,41.0,28.4,61,30.23,10.0,Calm,Calm,-,N/A,,Clear,0,2013-01-22 23:55:00
6:15 PM,37.4,26.6,65,30.23,10.0,Calm,Calm,-,N/A,,Clear,0,2013-01-23 00:15:00
6:35 PM,35.6,28.4,75,30.23,10.0,Calm,Calm,-,N/A,,Clear,0,2013-01-23 00:35:00
6:55 PM,35.6,28.4,75,30.23,10.0,Calm,Calm,-,N/A,,Clear,0,2013-01-23 00:55:00
7:15 PM,33.8,28.4,81,30.24,10.0,Calm,Calm,-,N/A,,Clear,0,2013-01-23 01:15:00
7:55 PM,32.0,28.4,87,30.24,10.0,Calm,Calm,-,N/A,,Clear,0,2013-01-23 01:55:00
8:15 PM,32.0,28.4,87,30.25,10.0,Calm,Calm,-,N/A,,Clear,0,2013-01-23 02:15:00
8:35 PM,32.0,26.6,80,30.24,10.0,Calm,Calm,-,N/A,,Clear,0,2013-01-23 02:35:00
8:55 PM,32.0,26.6,80,30.24,10.0,Calm,Calm,-,N/A,,Clear,0,2013-01-23 02:55:00
9:15 PM,32.0,26.6,80,30.24,10.0,Calm,Calm,-,N/A,,Clear,0,2013-01-23 03:15:00
9:35 PM,30.2,26.6,86,30.25,10.0,Calm,Calm,-,N/A,,Clear,0,2013-01-23 03:35:00
9:55 PM,30.2,26.6,86,30.25,10.0,Calm,Calm,-,N/A,,Clear,0,2013-01-23 03:55:00
10:15 PM,28.4,26.6,93,30.25,10.0,Calm,Calm,-,N/A,,Clear,0,2013-01-23 04:15:00
10:55 PM,26.6,26.6,100,30.26,-9999.0,Calm,Calm,-,N/A,,Unknown,0,2013-01-23 04:55:00
11:15 PM,28.4,26.6,93,30.26,-9999.0,Calm,Calm,-,N/A,,Unknown,0,2013-01-23 05:15:00
11:35 PM,28.4,28.4,100,30.27,-9999.0,Calm,Calm,-,N/A,,Unknown,0,2013-01-23 05:35:00
11:55 PM,28.4,26.6,93,30.27,10.0,Calm,Calm,-,N/A,,Clear,0,2013-01-23 05:55:00